This is the latest recevied weather packets stored in our database for station/object M0XDC. If no packets are shown the sender has not sent any weather packets the latest 10 day(s).
| Time | Temp. | Humidity | Pressure | Rain* | Wind** | Luminosity | Snow |
|---|---|---|---|---|---|---|---|
| 1787784523 | 17.78° C | 92% | 1009.7 hPa | 0 mm | - | - | - |
| 1787782723 | 17.78° C | 93% | 1010.1 hPa | 0 mm | - | - | - |
| 1787780923 | 17.22° C | 92% | 1010.3 hPa | 0 mm | - | - | - |
| 1787779123 | 17.78° C | 91% | 1010.7 hPa | 0 mm | - | - | - |
| 1787777323 | 18.33° C | 91% | 1010.6 hPa | 0 mm | - | - | - |
| 1787775523 | 18.33° C | 89% | 1010.7 hPa | 0 mm | - | - | - |
| 1787773723 | 18.33° C | 88% | 1010.8 hPa | 0 mm | - | - | - |
| 1787771923 | 18.89° C | 84% | 1010.9 hPa | 0 mm | - | - | - |
| 1787770123 | 20° C | 81% | 1010.5 hPa | 0 mm | - | - | - |
| 1787768323 | 20.56° C | 79% | 1010.5 hPa | 0 mm | - | - | - |
| 1787766523 | 21.11° C | 76% | 1010.3 hPa | 0 mm | - | - | - |
| 1787764723 | 21.67° C | 74% | 1010.1 hPa | 0 mm | - | - | - |
| 1787762923 | 22.22° C | 71% | 1010.2 hPa | 0 mm | - | - | - |
| 1787761123 | 23.33° C | 69% | 1010.4 hPa | 0 mm | - | - | - |
| 1787759323 | 23.33° C | 68% | 1010.5 hPa | 0 mm | - | - | - |
| 1787757523 | 23.89° C | 66% | 1010.6 hPa | 0 mm | - | - | - |
| 1787755723 | 24.44° C | 66% | 1010.9 hPa | 0 mm | - | - | - |
| 1787753923 | 24.44° C | 64% | 1010.9 hPa | 0 mm | - | - | - |
| 1787752123 | 23.89° C | 64% | 1010.9 hPa | 0 mm | - | - | - |
| 1787750323 | 23.89° C | 65% | 1011.1 hPa | 0 mm | - | - | - |
| 1787748523 | 23.33° C | 66% | 1011.1 hPa | 0 mm | - | - | - |
| 1787746723 | 23.33° C | 68% | 1011.3 hPa | 0 mm | - | - | - |
| 1787744923 | 22.78° C | 70% | 1011.8 hPa | 0 mm | - | - | - |
| 1787743123 | 22.78° C | 71% | 1011.6 hPa | 0 mm | - | - | - |
| 1787741323 | 22.22° C | 76% | 1011.9 hPa | 0 mm | - | - | - |
* Rain latest hour (hover to see other rain measurements)
** Current wind speed in m/s (hover to see current wind gust speed)